Time;durP1;ratioP1;P1;durP2;ratioP2;P2;SDS_P1;SDS_P2;PMS_P1;PMS_P2;Temp;Humidity;BMP_temperature;BMP_pressure;BME280_temperature;BME280_humidity;BME280_pressure;Samples;Min_cycle;Max_cycle;Signal;HPM_P1;HPM_P2
2022/12/24 00:01:00;;;;;;;;;;;;;;;13.59;72.04;97353.16;4409794;32;19996;-80
2022/12/24 00:03:27;;;;;;;;;;;;;;;13.32;71.83;97361.00;4410103;32;20028;-80
2022/12/24 00:05:54;;;;;;;;;;;;;;;13.78;70.26;97359.75;4409795;32;19969;-80
2022/12/24 00:08:21;;;;;;;;;;;;;;;13.13;74.01;97367.41;4410098;32;20037;-80
2022/12/24 00:10:51;;;;;;;;;;;;;;;13.10;73.46;97390.94;4409890;32;20000;-79
2022/12/24 00:13:18;;;;;;;;;;;;;;;12.53;76.20;97394.44;4409510;32;20032;-80
2022/12/24 00:15:45;;;;;;;;;;;;;;;12.81;75.54;97397.94;4409741;32;19969;-80
2022/12/24 00:18:11;;;;;;;;;;;;;;;13.08;73.82;97401.41;4409903;32;19996;-80
2022/12/24 00:20:38;;;;;;;;;;;;;;;13.60;71.26;97387.69;4409544;32;19978;-80
2022/12/24 00:23:05;;;;;;;;;;;;;;;13.17;72.99;97382.66;4409729;32;19988;-80
2022/12/24 00:25:31;;;;;;;;;;;;;;;12.69;75.60;97379.63;4409623;32;20019;-80
2022/12/24 00:27:58;;;;;;;;;;;;;;;12.72;75.19;97389.78;4409428;32;19989;-79
2022/12/24 00:30:25;;;;;;;;;;;;;;;12.15;78.23;97379.47;4409757;32;20043;-80
2022/12/24 00:32:51;;;;;;;;;;;;;;;11.75;79.89;97373.19;4409748;32;19977;-80
2022/12/24 00:35:18;;;;;;;;;;;;;;;12.13;78.00;97373.56;4409044;32;20073;-80
2022/12/24 00:37:48;;;;;;;;;;;;;;;12.68;75.77;97383.16;4409743;32;19981;-80
2022/12/24 00:40:15;;;;;;;;;;;;;;;12.37;77.32;97373.00;4409965;32;20031;-80
2022/12/24 00:42:42;;;;;;;;;;;;;;;12.64;75.54;97373.91;4411342;32;19992;-79
2022/12/24 00:45:09;;;;;;;;;;;;;;;12.14;78.00;97371.81;4411391;32;19970;-80
2022/12/24 00:47:36;;;;;;;;;;;;;;;11.76;80.28;97372.28;4411549;32;19978;-80
2022/12/24 00:50:03;;;;;;;;;;;;;;;11.67;81.16;97364.22;4411059;32;19977;-80
2022/12/24 00:52:30;;;;;;;;;;;;;;;11.28;83.77;97366.44;4411447;32;19977;-80
2022/12/24 00:54:56;;;;;;;;;;;;;;;11.21;85.02;97361.69;4411018;32;19988;-79
2022/12/24 00:57:23;;;;;;;;;;;;;;;10.87;87.39;97357.56;4411482;32;19985;-79
2022/12/24 00:59:50;;;;;;;;;;;;;;;11.09;86.53;97358.03;4411335;32;20007;-79
2022/12/24 01:02:16;;;;;;;;;;;;;;;10.81;88.11;97357.88;4411117;32;20022;-79
2022/12/24 01:07:28;;;;;;;;;;;;;;;10.81;88.49;97355.31;4411342;32;20027;-79
2022/12/24 01:09:55;;;;;;;;;;;;;;;11.19;86.23;97366.09;4411007;32;20000;-80
2022/12/24 01:12:22;;;;;;;;;;;;;;;11.19;85.92;97364.34;4411323;32;20032;-80
2022/12/24 01:14:49;;;;;;;;;;;;;;;11.33;85.16;97366.16;4411208;32;20316;-80
2022/12/24 01:17:15;;;;;;;;;;;;;;;11.05;85.95;97372.00;4410972;32;19978;-79
2022/12/24 01:19:42;;;;;;;;;;;;;;;11.45;83.34;97373.19;4411227;32;20329;-79
2022/12/24 01:22:09;;;;;;;;;;;;;;;11.15;84.35;97375.75;4411243;32;19984;-79
2022/12/24 01:24:35;;;;;;;;;;;;;;;11.10;84.16;97364.87;4410975;32;19969;-79
2022/12/24 01:27:02;;;;;;;;;;;;;;;11.12;84.19;97364.78;4411196;32;19981;-79
2022/12/24 01:29:29;;;;;;;;;;;;;;;11.08;84.80;97368.47;4411114;32;20342;-80
2022/12/24 01:31:55;;;;;;;;;;;;;;;11.25;84.21;97373.50;4410854;32;19973;-79
2022/12/24 01:34:22;;;;;;;;;;;;;;;10.73;86.56;97361.69;4411043;32;20260;-79
2022/12/24 01:36:49;;;;;;;;;;;;;;;11.08;85.36;97358.97;4410817;32;19977;-79
2022/12/24 01:39:15;;;;;;;;;;;;;;;11.12;84.99;97363.03;4411006;32;20007;-79
2022/12/24 01:44:34;;;;;;;;;;;;;;;11.34;83.22;97364.41;4410969;32;20534;-79
2022/12/24 01:47:05;;;;;;;;;;;;;;;11.24;83.34;97374.41;4411165;32;19982;-80
2022/12/24 01:49:32;;;;;;;;;;;;;;;11.49;82.03;97376.47;4411093;32;19989;-80
2022/12/24 01:52:10;;;;;;;;;;;;;;;11.43;82.27;97387.13;4396844;32;19992;-80
2022/12/24 01:54:47;;;;;;;;;;;;;;;11.29;83.45;97387.91;4397286;32;19984;-80
2022/12/24 01:57:15;;;;;;;;;;;;;;;11.14;84.64;97396.50;4397533;32;19986;-79
2022/12/24 01:59:43;;;;;;;;;;;;;;;11.37;84.63;97411.53;4397110;32;20052;-79
2022/12/24 02:02:10;;;;;;;;;;;;;;;11.46;84.15;97402.44;4397472;32;20321;-79
2022/12/24 02:04:56;;;;;;;;;;;;;;;11.88;82.11;97425.87;4411025;32;20252;-80
2022/12/24 02:07:23;;;;;;;;;;;;;;;12.63;79.23;97438.69;4397162;32;19985;-79
2022/12/24 02:09:51;;;;;;;;;;;;;;;12.60;78.76;97449.25;4397270;32;20673;-80
2022/12/24 02:12:17;;;;;;;;;;;;;;;12.86;77.35;97448.47;4410793;32;19974;-79
2022/12/24 02:14:44;;;;;;;;;;;;;;;12.68;78.49;97462.56;4397142;32;19988;-79
2022/12/24 02:17:30;;;;;;;;;;;;;;;13.50;73.99;97470.37;4410911;32;19981;-79
2022/12/24 02:20:30;;;;;;;;;;;;;;;13.51;73.80;97477.25;4410546;32;20041;-79
2022/12/24 02:23:00;;;;;;;;;;;;;;;13.89;71.59;97481.72;4369381;32;19974;-79
2022/12/24 02:25:59;;;;;;;;;;;;;;;14.03;71.24;97476.47;4410902;32;19966;-80
2022/12/24 02:28:44;;;;;;;;;;;;;;;14.23;69.24;97458.75;4368575;32;19973;-79
2022/12/24 02:31:12;;;;;;;;;;;;;;;13.60;73.07;97450.72;4410681;32;19985;-79
2022/12/24 02:33:49;;;;;;;;;;;;;;;13.50;73.84;97469.56;4396977;32;19970;-79
2022/12/24 02:36:24;;;;;;;;;;;;;;;13.02;76.26;97454.38;4410574;32;20316;-79
2022/12/24 02:39:01;;;;;;;;;;;;;;;13.11;75.90;97465.94;4397147;32;19989;-79
2022/12/24 02:42:04;;;;;;;;;;;;;;;12.94;76.36;97464.38;4396846;32;20012;-79
2022/12/24 02:44:19;;;;;;;;;;;;;;;12.39;79.62;97462.53;4399339;32;20320;-79
2022/12/24 02:46:46;;;;;;;;;;;;;;;11.76;83.39;97459.31;4410627;32;19984;-79
2022/12/24 02:49:13;;;;;;;;;;;;;;;12.10;82.21;97455.66;4396823;32;20043;-79
2022/12/24 02:51:40;;;;;;;;;;;;;;;12.68;79.45;97465.16;4410595;32;19996;-79
2022/12/24 02:54:06;;;;;;;;;;;;;;;12.56;79.79;97450.38;4406236;32;146887;-79
2022/12/24 02:56:53;;;;;;;;;;;;;;;12.34;80.60;97449.06;4410350;32;20416;-79
2022/12/24 02:59:27;;;;;;;;;;;;;;;12.76;78.53;97439.66;4397069;32;20012;-79
2022/12/24 03:02:03;;;;;;;;;;;;;;;12.55;79.08;97443.53;4396852;32;19989;-79
2022/12/24 03:04:38;;;;;;;;;;;;;;;12.69;78.55;97438.34;4409937;32;20020;-79
2022/12/24 03:07:14;;;;;;;;;;;;;;;12.52;78.33;97444.53;4397612;32;19976;-79
2022/12/24 03:09:50;;;;;;;;;;;;;;;12.69;77.63;97459.03;4396470;32;20350;-79
2022/12/24 03:12:21;;;;;;;;;;;;;;;12.58;77.48;97470.03;4396985;32;19989;-79
2022/12/24 03:14:47;;;;;;;;;;;;;;;12.19;78.72;97470.63;4396730;32;20316;-79
2022/12/24 03:17:14;;;;;;;;;;;;;;;11.98;79.65;97477.87;4410210;32;20324;-79
2022/12/24 03:19:41;;;;;;;;;;;;;;;11.85;80.56;97461.41;4410622;32;20001;-79
2022/12/24 03:22:09;;;;;;;;;;;;;;;12.39;77.49;97469.47;4410567;32;20030;-79
2022/12/24 03:24:35;;;;;;;;;;;;;;;12.31;78.03;97448.37;4396696;32;19981;-80
2022/12/24 03:27:03;;;;;;;;;;;;;;;13.26;73.31;97453.81;4410387;32;19984;-80
2022/12/24 03:29:30;;;;;;;;;;;;;;;13.30;73.50;97453.53;4396455;32;19978;-79
2022/12/24 03:32:01;;;;;;;;;;;;;;;13.15;73.74;97458.81;4396928;32;19989;-79
2022/12/24 03:34:27;;;;;;;;;;;;;;;13.26;73.49;97464.19;4410359;32;19965;-79
2022/12/24 03:36:54;;;;;;;;;;;;;;;13.01;74.49;97477.78;4396098;32;19980;-79
2022/12/24 03:39:21;;;;;;;;;;;;;;;12.54;76.85;97493.59;4410397;32;19977;-80
2022/12/24 03:41:48;;;;;;;;;;;;;;;11.96;80.40;97489.22;4410340;32;19982;-79
2022/12/24 03:44:14;;;;;;;;;;;;;;;12.41;77.99;97483.16;4396412;32;19981;-79
2022/12/24 03:46:41;;;;;;;;;;;;;;;12.87;75.92;97486.41;4410156;32;20070;-79
2022/12/24 03:49:08;;;;;;;;;;;;;;;13.32;73.56;97492.31;4410279;32;19981;-79
2022/12/24 03:51:34;;;;;;;;;;;;;;;13.21;73.19;97490.38;4409827;32;19981;-79
2022/12/24 03:54:01;;;;;;;;;;;;;;;13.15;72.95;97501.06;4410335;32;19981;-79
2022/12/24 03:56:28;;;;;;;;;;;;;;;12.76;74.54;97504.34;4409969;32;19962;-79
2022/12/24 03:58:54;;;;;;;;;;;;;;;12.82;74.18;97503.97;4409802;32;19977;-80
2022/12/24 04:01:21;;;;;;;;;;;;;;;12.51;75.85;97510.13;4409921;32;19993;-79
2022/12/24 04:03:48;;;;;;;;;;;;;;;13.14;73.65;97522.72;4410170;32;19987;-80
2022/12/24 04:06:16;;;;;;;;;;;;;;;13.59;69.99;97516.47;4409532;32;19961;-79
2022/12/24 04:08:43;;;;;;;;;;;;;;;13.25;70.91;97537.66;4410049;32;19978;-79
2022/12/24 04:11:10;;;;;;;;;;;;;;;12.91;71.39;97521.53;4409904;32;19986;-79
2022/12/24 04:13:37;;;;;;;;;;;;;;;12.08;74.97;97517.81;4396087;32;20004;-79
2022/12/24 04:16:05;;;;;;;;;;;;;;;12.15;75.40;97520.88;4409669;32;20013;-79
2022/12/24 04:18:32;;;;;;;;;;;;;;;11.86;76.42;97517.34;4409524;32;20008;-79
2022/12/24 04:20:59;;;;;;;;;;;;;;;11.82;76.15;97514.13;4409963;32;19996;-79
2022/12/24 04:23:25;;;;;;;;;;;;;;;11.93;75.77;97513.53;4409823;32;20035;-79
2022/12/24 04:25:52;;;;;;;;;;;;;;;11.74;76.84;97525.78;4409321;32;20347;-79
2022/12/24 04:28:19;;;;;;;;;;;;;;;11.77;76.53;97530.75;4396141;32;20030;-79
2022/12/24 04:30:45;;;;;;;;;;;;;;;12.01;76.46;97526.81;4409655;32;20331;-79
2022/12/24 04:33:12;;;;;;;;;;;;;;;12.41;74.74;97516.78;4409558;32;19977;-79
2022/12/24 04:35:40;;;;;;;;;;;;;;;12.57;73.67;97503.78;4409251;32;19970;-80
2022/12/24 04:38:07;;;;;;;;;;;;;;;12.97;71.83;97507.38;4409769;32;19977;-79
2022/12/24 04:40:34;;;;;;;;;;;;;;;13.36;69.82;97496.34;4409146;32;19996;-79
2022/12/24 04:43:00;;;;;;;;;;;;;;;13.84;66.84;97502.78;4409731;32;19973;-79
2022/12/24 04:45:27;;;;;;;;;;;;;;;14.10;65.96;97495.06;4409543;32;19978;-80
2022/12/24 04:47:54;;;;;;;;;;;;;;;14.63;62.98;97496.72;4409198;32;20054;-79
2022/12/24 04:50:20;;;;;;;;;;;;;;;14.49;63.47;97491.63;4409328;32;19992;-80
2022/12/24 04:52:47;;;;;;;;;;;;;;;14.68;62.24;97497.25;4409542;32;20339;-79
2022/12/24 04:55:14;;;;;;;;;;;;;;;14.53;62.24;97492.25;4408949;32;20327;-80
2022/12/24 04:57:40;;;;;;;;;;;;;;;14.49;62.88;97494.22;4409282;32;19981;-80
2022/12/24 05:00:07;;;;;;;;;;;;;;;13.90;64.93;97498.94;4409343;32;20000;-80
2022/12/24 05:02:34;;;;;;;;;;;;;;;14.03;63.50;97517.13;4409182;32;19978;-80
2022/12/24 05:05:02;;;;;;;;;;;;;;;13.71;65.12;97511.44;4409284;32;19970;-79
2022/12/24 05:07:28;;;;;;;;;;;;;;;13.43;65.30;97512.38;4409327;32;20039;-80
2022/12/24 05:09:55;;;;;;;;;;;;;;;13.89;63.79;97518.03;4409281;32;20008;-80
2022/12/24 05:12:22;;;;;;;;;;;;;;;13.03;67.39;97515.63;4409196;32;19984;-80
2022/12/24 05:14:48;;;;;;;;;;;;;;;13.93;64.06;97526.44;4408665;32;19962;-79
2022/12/24 05:17:15;;;;;;;;;;;;;;;14.12;63.24;97527.75;4409177;32;20040;-80
2022/12/24 05:19:42;;;;;;;;;;;;;;;14.43;61.78;97536.94;4409209;32;19997;-80
2022/12/24 05:27:39;;;;;;;;;;;;;;;14.35;62.01;97534.03;4410885;32;19997;-80
2022/12/24 05:30:12;;;;;;;;;;;;;;;14.51;61.17;97533.06;4410905;32;20299;-80
2022/12/24 05:32:39;;;;;;;;;;;;;;;14.57;60.39;97543.88;4411302;32;19974;-80
2022/12/24 05:35:06;;;;;;;;;;;;;;;14.11;62.12;97543.41;4410924;32;20268;-80
2022/12/24 05:37:32;;;;;;;;;;;;;;;14.23;61.90;97547.81;4410726;32;19996;-80
2022/12/24 05:39:59;;;;;;;;;;;;;;;13.96;63.12;97552.22;4411117;32;20007;-80
2022/12/24 05:42:26;;;;;;;;;;;;;;;13.37;64.97;97542.06;4411228;32;20035;-80
2022/12/24 05:44:53;;;;;;;;;;;;;;;13.34;65.83;97533.66;4410646;32;19969;-80
2022/12/24 05:47:19;;;;;;;;;;;;;;;13.12;67.46;97529.78;4411179;32;19993;-80
2022/12/24 05:49:46;;;;;;;;;;;;;;;13.37;66.71;97538.66;4410749;32;19982;-79
2022/12/24 05:52:12;;;;;;;;;;;;;;;12.97;68.46;97533.28;4411260;32;19992;-80
2022/12/24 05:54:39;;;;;;;;;;;;;;;13.56;66.25;97542.59;4410935;32;19969;-80
2022/12/24 05:57:07;;;;;;;;;;;;;;;13.91;64.39;97536.91;4410659;32;19988;-79
2022/12/24 05:59:33;;;;;;;;;;;;;;;13.64;65.75;97543.88;4411059;32;19996;-80
2022/12/24 06:02:00;;;;;;;;;;;;;;;14.52;61.32;97551.12;4410917;32;20030;-80
2022/12/24 06:04:27;;;;;;;;;;;;;;;14.87;59.70;97545.31;4410796;32;20362;-80
2022/12/24 06:06:54;;;;;;;;;;;;;;;13.45;64.63;97557.16;4411044;32;20279;-80
2022/12/24 06:09:21;;;;;;;;;;;;;;;15.26;58.53;97558.19;4411080;32;19977;-80
2022/12/24 06:11:48;;;;;;;;;;;;;;;14.55;61.18;97558.69;4410566;32;19992;-80
2022/12/24 06:14:14;;;;;;;;;;;;;;;15.76;56.69;97558.19;4410974;32;19969;-80
2022/12/24 06:16:41;;;;;;;;;;;;;;;15.08;58.53;97579.41;4410877;32;20336;-79
2022/12/24 06:19:08;;;;;;;;;;;;;;;13.68;63.52;97586.81;4410564;32;20039;-79
2022/12/24 06:21:35;;;;;;;;;;;;;;;12.97;68.16;97595.41;4410816;32;19986;-79
2022/12/24 06:24:01;;;;;;;;;;;;;;;12.78;69.47;97587.94;4410978;32;20020;-80
2022/12/24 06:26:28;;;;;;;;;;;;;;;12.43;71.45;97588.19;4410580;32;19978;-80
2022/12/24 06:28:55;;;;;;;;;;;;;;;12.53;71.37;97593.69;4410845;32;19986;-80
2022/12/24 06:31:22;;;;;;;;;;;;;;;12.29;71.93;97600.28;4410741;32;19988;-80
2022/12/24 06:33:49;;;;;;;;;;;;;;;11.86;74.33;97597.50;4410632;32;19987;-79
2022/12/24 06:36:16;;;;;;;;;;;;;;;11.85;74.48;97611.34;4410484;32;19973;-80
2022/12/24 06:38:44;;;;;;;;;;;;;;;11.84;75.00;97615.69;4409638;32;19985;-79
2022/12/24 06:41:11;;;;;;;;;;;;;;;11.64;76.61;97607.31;4410640;32;20312;-80
2022/12/24 06:43:37;;;;;;;;;;;;;;;11.55;77.98;97619.78;4410868;32;19994;-80
2022/12/24 06:46:04;;;;;;;;;;;;;;;11.70;77.46;97614.75;4410435;32;19986;-80
2022/12/24 06:48:31;;;;;;;;;;;;;;;12.08;75.80;97607.47;4410795;32;19985;-79
2022/12/24 06:50:57;;;;;;;;;;;;;;;12.21;74.74;97607.63;4410560;32;19970;-80
2022/12/24 06:53:24;;;;;;;;;;;;;;;13.32;68.65;97611.50;4396701;32;19980;-80
2022/12/24 06:55:51;;;;;;;;;;;;;;;12.98;68.92;97610.91;4410487;32;19978;-80
2022/12/24 06:58:18;;;;;;;;;;;;;;;12.40;71.60;97616.84;4410685;32;19981;-80
2022/12/24 07:00:46;;;;;;;;;;;;;;;12.75;70.52;97625.16;4410254;32;20233;-80
2022/12/24 07:03:12;;;;;;;;;;;;;;;13.06;69.77;97635.47;4410716;32;19961;-80
2022/12/24 07:05:39;;;;;;;;;;;;;;;13.56;67.44;97643.69;4410601;32;19981;-80
2022/12/24 07:08:07;;;;;;;;;;;;;;;13.39;68.77;97636.09;4410343;32;19996;-80
2022/12/24 07:10:33;;;;;;;;;;;;;;;13.41;68.47;97651.56;4396807;32;19973;-80
2022/12/24 07:13:00;;;;;;;;;;;;;;;14.07;64.73;97662.13;4410683;32;19969;-80
2022/12/24 07:15:27;;;;;;;;;;;;;;;14.06;64.34;97654.44;4410036;32;20342;-80
2022/12/24 07:17:53;;;;;;;;;;;;;;;14.18;64.17;97657.09;4410512;32;20025;-80
2022/12/24 07:20:20;;;;;;;;;;;;;;;14.00;64.85;97663.44;4410495;32;19989;-80
2022/12/24 07:22:47;;;;;;;;;;;;;;;13.99;64.62;97655.75;4410102;32;20434;-80
2022/12/24 07:25:14;;;;;;;;;;;;;;;14.93;60.98;97654.84;4410485;32;19989;-80
2022/12/24 07:27:40;;;;;;;;;;;;;;;14.30;62.42;97649.44;4410606;32;20080;-80
2022/12/24 07:30:08;;;;;;;;;;;;;;;15.32;58.72;97659.13;4410162;32;19988;-80
2022/12/24 07:32:34;;;;;;;;;;;;;;;14.84;59.65;97665.00;4410506;32;19983;-80
2022/12/24 07:35:01;;;;;;;;;;;;;;;14.45;62.04;97669.25;4409954;32;20313;-79
2022/12/24 07:37:28;;;;;;;;;;;;;;;14.98;60.46;97668.34;4410361;32;20366;-80
2022/12/24 07:39:55;;;;;;;;;;;;;;;14.80;61.23;97673.94;4410449;32;20342;-80
2022/12/24 07:42:21;;;;;;;;;;;;;;;15.41;59.61;97682.81;4410116;32;19966;-80
2022/12/24 07:44:48;;;;;;;;;;;;;;;14.27;61.42;97680.81;4410252;32;20457;-80
2022/12/24 07:47:15;;;;;;;;;;;;;;;14.82;60.20;97690.25;4410353;32;20019;-79
2022/12/24 07:49:41;;;;;;;;;;;;;;;14.52;62.02;97687.88;4409422;32;19976;-80
2022/12/24 07:52:08;;;;;;;;;;;;;;;14.45;62.33;97687.41;4410303;32;19974;-80
2022/12/24 07:54:35;;;;;;;;;;;;;;;15.59;57.83;97697.16;4410265;32;20032;-80
2022/12/24 07:57:02;;;;;;;;;;;;;;;15.73;56.73;97715.28;4409718;32;20040;-79
2022/12/24 07:59:28;;;;;;;;;;;;;;;15.04;59.61;97719.91;4410192;32;19987;-80
2022/12/24 08:01:55;;;;;;;;;;;;;;;14.58;61.47;97721.25;4410027;32;19973;-80
2022/12/24 08:04:22;;;;;;;;;;;;;;;14.00;64.39;97723.09;4409732;32;19978;-79
2022/12/24 08:06:49;;;;;;;;;;;;;;;14.64;62.50;97737.25;4409925;32;20023;-80
2022/12/24 08:09:15;;;;;;;;;;;;;;;14.57;62.80;97745.50;4410088;32;19988;-80
2022/12/24 08:11:42;;;;;;;;;;;;;;;14.72;62.36;97776.53;4409604;32;19969;-80
2022/12/24 08:14:17;;;;;;;;;;;;;;;13.25;68.45;97787.19;4410116;32;19993;-80
2022/12/24 08:16:44;;;;;;;;;;;;;;;13.23;70.10;97802.00;4409694;32;20016;-80
2022/12/24 08:19:10;;;;;;;;;;;;;;;13.64;68.01;97816.06;4409682;32;19974;-80
2022/12/24 08:21:37;;;;;;;;;;;;;;;12.79;71.53;97820.00;4396078;32;19969;-79
2022/12/24 08:24:04;;;;;;;;;;;;;;;13.03;72.19;97818.63;4409575;32;19984;-79
2022/12/24 08:26:31;;;;;;;;;;;;;;;12.45;75.43;97821.84;4409695;32;20000;-80
2022/12/24 08:28:57;;;;;;;;;;;;;;;12.51;76.41;97822.41;4409875;32;19970;-79
2022/12/24 08:31:24;;;;;;;;;;;;;;;13.36;72.93;97825.44;4409249;32;19974;-79
2022/12/24 08:33:51;;;;;;;;;;;;;;;12.90;74.67;97814.22;4409680;32;19993;-79
2022/12/24 08:36:17;;;;;;;;;;;;;;;12.87;75.42;97812.66;4409397;32;20024;-80
2022/12/24 08:38:44;;;;;;;;;;;;;;;13.55;72.41;97810.50;4409382;32;19988;-79
2022/12/24 08:41:11;;;;;;;;;;;;;;;13.62;72.18;97817.94;4409492;32;19985;-79
2022/12/24 08:43:37;;;;;;;;;;;;;;;12.93;75.92;97801.94;4409647;32;20383;-79
2022/12/24 08:46:04;;;;;;;;;;;;;;;12.92;76.56;97787.31;4409192;32;19990;-79
2022/12/24 08:48:32;;;;;;;;;;;;;;;12.61;78.24;97806.31;4409572;32;19981;-79
2022/12/24 08:50:58;;;;;;;;;;;;;;;12.09;81.18;97806.50;4409369;32;19966;-79
2022/12/24 08:53:25;;;;;;;;;;;;;;;12.83;78.17;97807.72;4409176;32;20383;-79
2022/12/24 08:55:52;;;;;;;;;;;;;;;12.97;77.30;97807.75;4409334;32;20024;-79
2022/12/24 08:58:21;;;;;;;;;;;;;;;13.48;75.34;97814.34;4409507;32;19973;-80
2022/12/24 09:00:48;;;;;;;;;;;;;;;13.36;75.71;97825.44;4395374;32;20458;-79
2022/12/24 09:03:15;;;;;;;;;;;;;;;14.02;73.55;97824.97;4411431;32;19978;-79
2022/12/24 09:05:48;;;;;;;;;;;;;;;13.87;73.46;97816.38;4411494;32;19995;-79
2022/12/24 09:08:15;;;;;;;;;;;;;;;14.70;69.57;97825.16;4411190;32;20019;-79
2022/12/24 09:10:42;;;;;;;;;;;;;;;15.31;65.94;97822.97;4411220;32;19969;-79
2022/12/24 09:13:08;;;;;;;;;;;;;;;14.31;69.87;97822.41;4411175;32;19997;-79
2022/12/24 09:15:35;;;;;;;;;;;;;;;14.49;69.13;97834.28;4411226;32;20035;-79
2022/12/24 09:18:02;;;;;;;;;;;;;;;14.43;69.00;97837.22;4411289;32;19990;-79
2022/12/24 09:20:29;;;;;;;;;;;;;;;14.62;68.08;97831.75;4410798;32;19984;-79
2022/12/24 09:22:55;;;;;;;;;;;;;;;15.45;63.52;97835.09;4411328;32;19978;-79
2022/12/24 09:25:22;;;;;;;;;;;;;;;15.44;62.97;97828.22;4411232;32;19996;-79
2022/12/24 09:27:49;;;;;;;;;;;;;;;15.13;64.45;97831.97;4411020;32;19993;-79
2022/12/24 09:30:15;;;;;;;;;;;;;;;15.13;64.43;97838.00;4411252;32;19970;-79
2022/12/24 09:32:42;;;;;;;;;;;;;;;15.39;64.15;97833.72;4411228;32;19981;-79
2022/12/24 09:35:09;;;;;;;;;;;;;;;15.24;64.11;97837.31;4410825;32;20004;-79
2022/12/24 09:37:36;;;;;;;;;;;;;;;15.08;64.47;97837.47;4411087;32;20316;-79
2022/12/24 09:40:03;;;;;;;;;;;;;;;14.50;66.07;97833.34;4411206;32;19973;-79
2022/12/24 09:42:45;;;;;;;;;;;;;;;14.48;66.14;97834.38;4410970;32;20531;-79
2022/12/24 09:45:28;;;;;;;;;;;;;;;14.24;68.05;97831.47;4411156;32;20261;-79
2022/12/24 09:48:05;;;;;;;;;;;;;;;14.54;67.49;97837.41;4397533;32;20295;-79
2022/12/24 09:50:31;;;;;;;;;;;;;;;14.73;66.24;97839.69;4397281;32;20495;-79
2022/12/24 09:52:59;;;;;;;;;;;;;;;14.51;66.34;97845.41;4411099;32;20025;-79
2022/12/24 09:55:27;;;;;;;;;;;;;;;14.33;67.53;97841.28;4410768;32;20319;-79
2022/12/24 09:57:54;;;;;;;;;;;;;;;14.01;69.18;97838.88;4397458;32;19977;-80
2022/12/24 10:00:22;;;;;;;;;;;;;;;14.48;66.68;97839.56;4397435;32;19965;-80
2022/12/24 10:02:49;;;;;;;;;;;;;;;15.03;64.82;97840.38;4410726;32;19977;-79
2022/12/24 10:05:17;;;;;;;;;;;;;;;13.94;69.42;97850.56;4410964;32;20051;-80
2022/12/24 10:08:02;;;;;;;;;;;;;;;15.24;64.03;97858.94;4397387;32;20426;-80
2022/12/24 10:10:29;;;;;;;;;;;;;;;14.83;64.57;97858.13;4396826;32;19965;-80
2022/12/24 10:12:59;;;;;;;;;;;;;;;14.97;63.75;97855.50;4410856;32;19973;-80
2022/12/24 10:15:26;;;;;;;;;;;;;;;15.67;61.64;97857.94;4397293;32;20008;-80
2022/12/24 10:18:06;;;;;;;;;;;;;;;15.29;62.69;97854.25;4410515;32;19973;-80
2022/12/24 10:20:38;;;;;;;;;;;;;;;14.83;63.37;97842.56;4410967;32;19984;-79
2022/12/24 10:23:08;;;;;;;;;;;;;;;14.74;64.24;97844.78;4411048;32;19996;-79
2022/12/24 10:25:44;;;;;;;;;;;;;;;15.13;62.62;97837.19;4396921;32;20320;-79
2022/12/24 10:28:18;;;;;;;;;;;;;;;14.40;65.67;97856.41;4410843;32;19977;-79
2022/12/24 10:30:47;;;;;;;;;;;;;;;15.64;60.46;97860.75;4410470;32;19965;-79
2022/12/24 10:33:18;;;;;;;;;;;;;;;15.16;61.94;97869.00;4411060;32;20009;-79
2022/12/24 10:35:46;;;;;;;;;;;;;;;15.51;61.51;97879.69;4396867;32;20001;-79
2022/12/24 10:38:13;;;;;;;;;;;;;;;15.67;59.50;97886.53;4396810;32;19969;-80
2022/12/24 10:40:41;;;;;;;;;;;;;;;16.16;57.43;97884.09;4397071;32;19969;-80
2022/12/24 10:43:21;;;;;;;;;;;;;;;15.85;57.08;97890.53;4397031;32;20009;-80
2022/12/24 10:45:58;;;;;;;;;;;;;;;15.76;57.42;97884.19;4410431;32;19981;-79
2022/12/24 10:48:29;;;;;;;;;;;;;;;14.77;61.88;97880.97;4397171;32;20339;-79
2022/12/24 10:51:04;;;;;;;;;;;;;;;14.39;62.51;97882.47;4397039;32;20406;-79
2022/12/24 10:53:37;;;;;;;;;;;;;;;15.04;61.67;97874.97;4410554;32;20033;-80
2022/12/24 10:56:05;;;;;;;;;;;;;;;14.92;62.11;97886.12;4410593;32;19995;-80
2022/12/24 10:58:32;;;;;;;;;;;;;;;15.26;60.21;97890.84;4410503;32;20374;-79
2022/12/24 11:00:58;;;;;;;;;;;;;;;15.31;59.69;97887.94;4410473;32;20309;-79
2022/12/24 11:03:32;;;;;;;;;;;;;;;15.58;59.64;97882.75;4410743;32;19985;-80
2022/12/24 11:06:00;;;;;;;;;;;;;;;16.22;56.99;97886.28;4410332;32;19996;-80
2022/12/24 11:08:26;;;;;;;;;;;;;;;16.28;54.95;97891.09;4410723;32;19974;-80
2022/12/24 11:11:12;;;;;;;;;;;;;;;16.04;55.62;97887.50;4410523;32;19980;-80
2022/12/24 11:13:59;;;;;;;;;;;;;;;16.59;53.34;97889.81;4410407;32;19988;-79
2022/12/24 11:16:28;;;;;;;;;;;;;;;16.66;53.01;97901.44;4410528;32;19986;-79
2022/12/24 11:18:56;;;;;;;;;;;;;;;16.45;54.43;97897.72;4410616;32;19986;-80
2022/12/24 11:21:30;;;;;;;;;;;;;;;16.02;55.29;97897.19;4410160;32;20328;-79
2022/12/24 11:23:58;;;;;;;;;;;;;;;15.90;53.30;97897.09;4409844;32;19978;-79
2022/12/24 11:26:26;;;;;;;;;;;;;;;16.45;52.39;97905.53;4396656;32;20653;-79
2022/12/24 11:29:13;;;;;;;;;;;;;;;16.39;53.09;97900.75;4410530;32;19969;-79
2022/12/24 11:31:41;;;;;;;;;;;;;;;16.36;51.88;97885.31;4410224;32;20011;-79
2022/12/24 11:34:26;;;;;;;;;;;;;;;15.42;52.85;97882.94;4410260;32;19997;-79
2022/12/24 11:36:53;;;;;;;;;;;;;;;14.95;54.86;97884.19;4410142;32;20036;-79
2022/12/24 11:39:21;;;;;;;;;;;;;;;15.46;53.18;97891.34;4396751;32;20023;-79
2022/12/24 11:41:49;;;;;;;;;;;;;;;15.18;54.17;97881.87;4410054;32;19969;-80
2022/12/24 11:44:22;;;;;;;;;;;;;;;15.27;52.85;97886.50;4396915;32;19985;-80
2022/12/24 11:46:55;;;;;;;;;;;;;;;15.54;53.11;97900.31;4410241;32;19978;-79
2022/12/24 11:49:23;;;;;;;;;;;;;;;15.16;53.11;97889.78;4409942;32;19992;-79
2022/12/24 11:51:58;;;;;;;;;;;;;;;14.79;53.76;97893.88;4410227;32;19973;-79
2022/12/24 11:54:26;;;;;;;;;;;;;;;14.56;54.74;97902.22;4410297;32;20316;-79
2022/12/24 11:56:53;;;;;;;;;;;;;;;14.89;53.73;97889.78;4396476;32;19990;-79
2022/12/24 11:59:33;;;;;;;;;;;;;;;15.55;51.56;97908.97;4410210;32;20016;-80
2022/12/24 12:02:11;;;;;;;;;;;;;;;15.14;52.00;97902.03;4409946;32;19965;-79
2022/12/24 12:04:38;;;;;;;;;;;;;;;15.38;50.91;97902.22;4410076;32;19997;-80
2022/12/24 12:07:21;;;;;;;;;;;;;;;15.31;50.74;97906.16;4410010;32;20000;-80
2022/12/24 12:09:50;;;;;;;;;;;;;;;15.17;51.91;97911.41;4409739;32;19982;-80
2022/12/24 12:12:21;;;;;;;;;;;;;;;15.49;50.26;97911.94;4409970;32;19969;-80
2022/12/24 12:14:50;;;;;;;;;;;;;;;15.51;49.84;97905.69;4396286;32;19986;-80
2022/12/24 12:17:23;;;;;;;;;;;;;;;15.87;49.47;97922.50;4395960;32;19986;-80
2022/12/24 12:19:56;;;;;;;;;;;;;;;15.46;50.30;97938.97;4409896;32;19973;-80
2022/12/24 12:22:31;;;;;;;;;;;;;;;15.81;49.96;97936.72;4409913;32;20357;-80
2022/12/24 12:24:58;;;;;;;;;;;;;;;15.96;48.70;97937.50;4409749;32;20360;-80
2022/12/24 12:27:33;;;;;;;;;;;;;;;15.95;49.12;97941.03;4409775;32;20264;-80
2022/12/24 12:30:01;;;;;;;;;;;;;;;16.36;47.41;97940.00;4395859;32;19974;-80
2022/12/24 12:32:33;;;;;;;;;;;;;;;15.91;49.17;97956.00;4396015;32;19969;-80
2022/12/24 12:35:02;;;;;;;;;;;;;;;15.77;48.42;97940.47;4396404;32;19994;-80
2022/12/24 12:37:36;;;;;;;;;;;;;;;16.40;47.59;97946.69;4411063;32;19992;-80
2022/12/24 12:40:03;;;;;;;;;;;;;;;16.23;47.01;97944.38;4411474;32;19969;-80
2022/12/24 12:42:30;;;;;;;;;;;;;;;16.76;45.22;97951.16;4411467;32;19970;-80
2022/12/24 12:45:00;;;;;;;;;;;;;;;16.52;46.16;97940.66;4397502;32;20324;-80
2022/12/24 12:47:33;;;;;;;;;;;;;;;16.30;46.87;97946.47;4411522;32;19982;-80
2022/12/24 12:50:22;;;;;;;;;;;;;;;16.67;45.70;97943.97;4411582;32;20068;-80
2022/12/24 12:53:07;;;;;;;;;;;;;;;15.54;48.88;97946.28;4397611;32;19966;-80
2022/12/24 12:55:34;;;;;;;;;;;;;;;15.63;47.85;97940.53;4411434;32;19973;-80
2022/12/24 12:58:05;;;;;;;;;;;;;;;15.59;48.35;97947.66;4411059;32;20313;-80
2022/12/24 13:00:32;;;;;;;;;;;;;;;15.93;46.95;97939.44;4411389;32;19974;-80
2022/12/24 13:03:17;;;;;;;;;;;;;;;15.70;48.00;97951.34;4397758;32;19980;-80
2022/12/24 13:05:59;;;;;;;;;;;;;;;14.80;50.36;97951.84;4411015;32;20326;-80
2022/12/24 13:08:29;;;;;;;;;;;;;;;14.59;52.01;97959.19;4411177;32;19994;-80